createdAt,value
2023-02-22T00:01:07.780Z,99044.95
2023-02-22T00:06:18.069Z,99036.83
2023-02-22T00:11:21.832Z,99040.32
2023-02-22T00:16:26.707Z,99040.63
2023-02-22T00:21:31.247Z,99044.09
2023-02-22T00:26:35.568Z,99050.48
2023-02-22T00:31:40.082Z,99046.53
2023-02-22T00:36:47.493Z,99046.55
2023-02-22T00:41:51.822Z,99053.02
2023-02-22T00:46:56.968Z,99056.29
2023-02-22T00:52:00.847Z,99055.30
2023-02-22T00:57:05.879Z,99059.84
2023-02-22T01:02:10.537Z,99058.17
2023-02-22T01:07:14.999Z,99060.52
2023-02-22T01:12:20.909Z,99064.13
2023-02-22T01:17:25.319Z,99067.43
2023-02-22T01:22:29.292Z,99065.98
2023-02-22T01:27:33.675Z,99069.64
2023-02-22T01:32:38.207Z,99065.10
2023-02-22T01:37:42.991Z,99061.61
2023-02-22T01:42:51.331Z,99062.27
2023-02-22T01:47:56.246Z,99061.39
2023-02-22T01:53:00.794Z,99060.16
2023-02-22T01:58:07.208Z,99059.48
2023-02-22T02:03:16.300Z,99058.60
2023-02-22T02:08:35.729Z,99059.93
2023-02-22T02:13:39.859Z,99053.13
2023-02-22T02:18:43.867Z,99052.21
2023-02-22T02:24:17.790Z,99054.19
2023-02-22T02:29:43.382Z,99055.42
2023-02-22T02:34:54.438Z,99058.22
2023-02-22T02:40:10.969Z,99062.26
2023-02-22T02:45:23.657Z,99060.77
2023-02-22T02:50:34.013Z,99064.89
2023-02-22T02:55:38.476Z,99063.80
2023-02-22T03:00:45.056Z,99062.17
2023-02-22T03:06:06.692Z,99062.89
2023-02-22T03:11:15.338Z,99071.36
2023-02-22T03:16:32.898Z,99074.25
2023-02-22T03:21:45.260Z,99079.45
2023-02-22T03:26:56.404Z,99080.14
2023-02-22T03:32:02.110Z,99081.20
2023-02-22T03:37:14.176Z,99082.31
2023-02-22T03:42:21.218Z,99082.59
2023-02-22T03:47:33.030Z,99081.22
2023-02-22T03:52:37.426Z,99085.46
2023-02-22T03:57:45.084Z,99083.02
2023-02-22T04:02:49.440Z,99087.64
2023-02-22T04:07:55.885Z,99090.79
2023-02-22T04:13:01.200Z,99092.34
2023-02-22T04:18:06.321Z,99092.71
2023-02-22T04:23:10.729Z,99093.92
2023-02-22T04:28:14.913Z,99096.39
2023-02-22T04:33:19.297Z,99092.95
2023-02-22T04:38:25.487Z,99096.41
2023-02-22T04:43:29.909Z,99097.08
2023-02-22T04:48:33.961Z,99093.67
2023-02-22T04:53:38.164Z,99098.32
2023-02-22T04:58:42.218Z,99102.16
2023-02-22T05:03:46.424Z,99101.70
2023-02-22T05:08:50.900Z,99102.95
2023-02-22T05:13:55.201Z,99093.98
2023-02-22T05:18:59.346Z,99093.08
2023-02-22T05:24:04.104Z,99099.91
2023-02-22T05:29:08.458Z,99104.02
2023-02-22T05:34:14.083Z,99111.73
2023-02-22T05:39:18.100Z,99113.88
2023-02-22T05:44:22.550Z,99116.27
2023-02-22T05:49:27.073Z,99118.89
2023-02-22T05:54:32.362Z,99121.51
2023-02-22T05:59:36.472Z,99132.67
2023-02-22T06:04:40.938Z,99139.54
2023-02-22T06:09:45.068Z,99146.25
2023-02-22T06:14:48.933Z,99153.21
2023-02-22T06:19:53.968Z,99160.81
2023-02-22T06:24:58.753Z,99164.21
2023-02-22T06:30:03.858Z,99169.02
2023-02-22T06:35:08.806Z,99167.34
2023-02-22T06:40:14.872Z,99173.36
2023-02-22T06:45:19.244Z,99180.80
2023-02-22T06:50:25.802Z,99181.45
2023-02-22T06:55:31.926Z,99183.86
2023-02-22T07:00:36.009Z,99190.31
2023-02-22T07:05:40.540Z,99191.87
2023-02-22T07:10:45.125Z,99190.83
2023-02-22T07:15:49.393Z,99191.23
2023-02-22T07:20:54.249Z,99188.75
2023-02-22T07:26:01.073Z,99196.19
2023-02-22T07:31:05.716Z,99199.05
2023-02-22T07:36:10.593Z,99203.17
2023-02-22T07:41:14.797Z,99197.67
2023-02-22T07:46:18.922Z,99200.20
2023-02-22T07:51:23.029Z,99195.77
2023-02-22T07:56:27.043Z,99200.96
2023-02-22T08:01:31.629Z,99203.01
2023-02-22T08:06:36.129Z,99203.84
2023-02-22T08:11:40.349Z,99214.27
2023-02-22T08:16:44.545Z,99212.50
2023-02-22T08:21:48.704Z,99216.63
2023-02-22T08:26:53.347Z,99216.70
2023-02-22T08:31:57.538Z,99219.05
2023-02-22T08:37:01.464Z,99219.30
2023-02-22T08:42:08.627Z,99221.02
2023-02-22T08:47:11.754Z,99226.30
2023-02-22T08:52:15.909Z,99231.20
2023-02-22T08:57:21.670Z,99230.94
2023-02-22T09:02:25.940Z,99229.61
2023-02-22T09:07:31.001Z,99232.10
2023-02-22T09:12:35.217Z,99236.21
2023-02-22T09:17:39.596Z,99238.27
2023-02-22T09:22:45.634Z,99239.64
2023-02-22T09:27:51.158Z,99241.95
2023-02-22T09:32:58.805Z,99240.19
2023-02-22T09:38:04.384Z,99236.90
2023-02-22T09:43:20.688Z,99236.29
2023-02-22T09:48:26.326Z,99236.36
2023-02-22T09:53:36.281Z,99234.17
2023-02-22T09:58:42.769Z,99234.66
2023-02-22T10:03:55.691Z,99238.23
2023-02-22T10:09:08.015Z,99232.73
2023-02-22T10:14:33.384Z,99230.59
2023-02-22T10:19:47.711Z,99228.05
2023-02-22T10:25:00.136Z,99228.00
2023-02-22T10:30:24.079Z,99222.77
2023-02-22T10:35:33.488Z,99221.66
2023-02-22T10:40:38.909Z,99220.48
2023-02-22T10:45:45.798Z,99222.52
2023-02-22T10:50:52.829Z,99220.05
2023-02-22T10:56:09.744Z,99212.09
2023-02-22T11:01:25.833Z,99210.26
2023-02-22T11:06:32.103Z,99209.06
2023-02-22T11:11:37.305Z,99209.56
2023-02-22T11:16:47.302Z,99207.40
2023-02-22T11:21:53.780Z,99203.05
2023-02-22T11:27:01.479Z,99205.46
2023-02-22T11:32:15.158Z,99206.64
2023-02-22T11:37:32.088Z,99205.98
2023-02-22T11:42:36.253Z,99204.79
2023-02-22T11:47:49.757Z,99206.81
2023-02-22T11:53:04.346Z,99202.71
2023-02-22T11:58:26.947Z,99201.90
2023-02-22T12:03:46.808Z,99200.04
2023-02-22T12:09:08.489Z,99198.95
2023-02-22T12:14:24.278Z,99197.12
2023-02-22T12:19:33.424Z,99190.30
2023-02-22T12:24:44.056Z,99187.77
2023-02-22T12:29:52.756Z,99186.45
2023-02-22T12:35:04.964Z,99188.08
2023-02-22T12:40:16.587Z,99182.15
2023-02-22T12:45:30.082Z,99179.46
2023-02-22T12:50:37.375Z,99179.10
2023-02-22T12:55:48.092Z,99184.38
2023-02-22T13:00:58.620Z,99186.79
2023-02-22T13:06:21.117Z,99182.09
2023-02-22T13:11:32.462Z,99181.52
2023-02-22T13:16:47.617Z,99176.86
2023-02-22T13:21:57.842Z,99181.95
2023-02-22T13:27:08.590Z,99179.70
2023-02-22T13:32:26.162Z,99182.39
2023-02-22T13:38:02.095Z,99183.20
2023-02-22T13:43:34.232Z,99179.42
2023-02-22T13:49:10.066Z,99179.91
2023-02-22T13:54:22.869Z,99183.52
2023-02-22T13:59:30.824Z,99185.95
2023-02-22T14:04:37.978Z,99179.42
2023-02-22T14:09:49.228Z,99179.48
2023-02-22T14:15:29.601Z,99178.05
2023-02-22T14:20:36.797Z,99182.23
2023-02-22T14:25:42.226Z,99183.98
2023-02-22T14:30:46.365Z,99182.01
2023-02-22T14:35:52.277Z,99181.12
2023-02-22T14:41:00.277Z,99181.13
2023-02-22T14:46:07.368Z,99181.64
2023-02-22T14:51:22.349Z,99183.90
2023-02-22T14:56:35.903Z,99190.16
2023-02-22T15:01:52.823Z,99185.08
2023-02-22T15:07:26.852Z,99191.46
2023-02-22T15:12:31.045Z,99183.99
2023-02-22T15:17:35.532Z,99187.96
2023-02-22T15:22:40.166Z,99189.23
2023-02-22T15:27:47.369Z,99188.48
2023-02-22T15:33:03.510Z,99187.19
2023-02-22T15:38:22.752Z,99184.34
2023-02-22T15:43:28.398Z,99183.09
2023-02-22T15:48:35.367Z,99182.69
2023-02-22T15:53:45.302Z,99182.20
2023-02-22T15:58:49.766Z,99180.55
2023-02-22T16:03:57.379Z,99180.38
2023-02-22T16:09:08.099Z,99184.21
2023-02-22T16:14:27.658Z,99189.79
2023-02-22T16:19:40.751Z,99198.23
2023-02-22T16:24:52.008Z,99205.02
2023-02-22T16:30:23.330Z,99203.95
2023-02-22T16:35:29.829Z,99206.77
2023-02-22T16:40:36.280Z,99208.48
2023-02-22T16:45:42.464Z,99209.40
2023-02-22T16:50:48.163Z,99211.85
2023-02-22T16:55:58.026Z,99215.02
2023-02-22T17:01:02.373Z,99214.26
2023-02-22T17:06:10.036Z,99217.12
2023-02-22T17:11:15.687Z,99219.09
2023-02-22T17:16:20.027Z,99220.83
2023-02-22T17:21:24.718Z,99220.87
2023-02-22T17:26:29.585Z,99221.72
2023-02-22T17:31:34.508Z,99224.98
2023-02-22T17:36:39.339Z,99217.88
2023-02-22T17:41:43.661Z,99217.60
2023-02-22T17:46:48.013Z,99218.42
2023-02-22T17:51:52.785Z,99218.64
2023-02-22T17:56:57.608Z,99218.10
2023-02-22T18:02:03.073Z,99217.48
2023-02-22T18:07:07.694Z,99215.97
2023-02-22T18:12:11.773Z,99216.49
2023-02-22T18:17:15.835Z,99212.73
2023-02-22T18:22:19.796Z,99217.73
2023-02-22T18:27:26.140Z,99215.73
2023-02-22T18:32:31.558Z,99215.36
2023-02-22T18:37:36.044Z,99217.73
2023-02-22T18:42:40.488Z,99210.76
2023-02-22T18:47:45.271Z,99210.79
2023-02-22T18:52:49.550Z,99208.99
2023-02-22T18:57:55.374Z,99207.76
2023-02-22T19:02:59.986Z,99210.73
2023-02-22T19:08:10.686Z,99212.69
2023-02-22T19:13:16.155Z,99213.89
2023-02-22T19:18:22.268Z,99219.31
2023-02-22T19:23:27.969Z,99221.61
2023-02-22T19:28:33.839Z,99225.80
2023-02-22T19:33:38.260Z,99230.60
2023-02-22T19:38:42.951Z,99231.00
2023-02-22T19:43:48.299Z,99227.00
2023-02-22T19:48:54.809Z,99231.08
2023-02-22T19:54:02.072Z,99232.05
2023-02-22T19:59:12.793Z,99234.64
2023-02-22T20:04:18.015Z,99235.77
2023-02-22T20:09:28.359Z,99232.65
2023-02-22T20:14:33.119Z,99235.86
2023-02-22T20:19:38.749Z,99236.39
2023-02-22T20:28:19.246Z,99233.74
2023-02-22T20:33:27.948Z,99245.42
2023-02-22T20:38:35.426Z,99250.92
2023-02-22T20:43:43.690Z,99248.17
2023-02-22T20:48:51.009Z,99251.40
2023-02-22T20:54:01.327Z,99251.66
2023-02-22T20:59:09.101Z,99254.35
2023-02-22T21:04:16.515Z,99260.99
2023-02-22T21:09:24.449Z,99258.98
2023-02-22T21:14:32.749Z,99258.08
2023-02-22T21:19:40.157Z,99260.77
2023-02-22T21:24:48.030Z,99268.80
2023-02-22T21:29:59.015Z,99271.77
2023-02-22T21:35:07.583Z,99273.66
2023-02-22T21:40:19.533Z,99266.81
2023-02-22T21:45:29.493Z,99268.30
2023-02-22T21:50:38.063Z,99267.64
2023-02-22T21:55:46.498Z,99269.85
2023-02-22T22:00:54.065Z,99277.53
2023-02-22T22:06:01.881Z,99273.41
2023-02-22T22:11:11.039Z,99275.58
2023-02-22T22:16:20.655Z,99271.52
2023-02-22T22:21:28.835Z,99272.34
2023-02-22T22:26:36.512Z,99273.27
2023-02-22T22:31:43.858Z,99271.96
2023-02-22T22:36:51.992Z,99271.22
2023-02-22T22:41:59.551Z,99273.16
2023-02-22T22:47:07.208Z,99271.42
2023-02-22T22:52:17.037Z,99270.38
2023-02-22T22:57:24.407Z,99269.39
2023-02-22T23:02:32.548Z,99272.03
2023-02-22T23:07:40.366Z,99271.09
2023-02-22T23:12:47.912Z,99270.98
2023-02-22T23:17:59.471Z,99273.13
2023-02-22T23:23:07.302Z,99271.01
2023-02-22T23:28:16.030Z,99266.85
2023-02-22T23:33:23.520Z,99271.00
2023-02-22T23:38:31.039Z,99266.55
2023-02-22T23:43:41.044Z,99266.47
2023-02-22T23:48:53.389Z,99266.15
2023-02-22T23:54:01.195Z,99262.42
2023-02-22T23:59:11.168Z,99259.29
